sensor_id;sensor_type;location;lat;lon;timestamp;P1;durP1;ratioP1;P2;durP2;ratioP2
41829;SDS011;38614;43.472;23.936;2024-03-23T00:54:24;12.02;;;6.35;;
41829;SDS011;38614;43.472;23.936;2024-03-23T00:57:13;11.50;;;6.28;;
41829;SDS011;38614;43.472;23.936;2024-03-23T00:59:59;10.32;;;6.05;;
41829;SDS011;38614;43.472;23.936;2024-03-23T01:02:46;16.75;;;7.13;;
41829;SDS011;38614;43.472;23.936;2024-03-23T01:05:35;10.20;;;5.78;;
41829;SDS011;38614;43.472;23.936;2024-03-23T01:08:22;13.45;;;6.63;;
41829;SDS011;38614;43.472;23.936;2024-03-23T01:11:08;12.93;;;6.32;;
41829;SDS011;38614;43.472;23.936;2024-03-23T01:13:55;18.20;;;6.55;;
41829;SDS011;38614;43.472;23.936;2024-03-23T01:16:42;11.82;;;6.70;;
41829;SDS011;38614;43.472;23.936;2024-03-23T01:19:28;13.55;;;6.32;;
41829;SDS011;38614;43.472;23.936;2024-03-23T01:22:15;29.33;;;7.07;;
41829;SDS011;38614;43.472;23.936;2024-03-23T01:25:05;11.63;;;6.07;;
41829;SDS011;38614;43.472;23.936;2024-03-23T01:27:52;16.73;;;6.28;;
41829;SDS011;38614;43.472;23.936;2024-03-23T01:30:38;21.60;;;6.68;;
41829;SDS011;38614;43.472;23.936;2024-03-23T01:33:25;12.18;;;4.82;;
41829;SDS011;38614;43.472;23.936;2024-03-23T01:36:11;7.55;;;4.15;;
41829;SDS011;38614;43.472;23.936;2024-03-23T01:38:58;15.10;;;4.70;;
41829;SDS011;38614;43.472;23.936;2024-03-23T01:41:44;11.68;;;5.20;;
41829;SDS011;38614;43.472;23.936;2024-03-23T01:44:31;16.80;;;5.78;;
41829;SDS011;38614;43.472;23.936;2024-03-23T01:47:17;7.95;;;4.47;;
41829;SDS011;38614;43.472;23.936;2024-03-23T01:50:07;10.02;;;5.50;;
41829;SDS011;38614;43.472;23.936;2024-03-23T01:52:59;11.25;;;6.10;;
41829;SDS011;38614;43.472;23.936;2024-03-23T01:55:53;21.52;;;7.35;;
41829;SDS011;38614;43.472;23.936;2024-03-23T01:58:46;17.30;;;7.75;;
41829;SDS011;38614;43.472;23.936;2024-03-23T02:01:34;9.55;;;6.35;;
41829;SDS011;38614;43.472;23.936;2024-03-23T02:04:22;20.35;;;7.93;;
41829;SDS011;38614;43.472;23.936;2024-03-23T02:07:08;22.75;;;6.78;;
41829;SDS011;38614;43.472;23.936;2024-03-23T02:09:55;27.13;;;7.95;;
41829;SDS011;38614;43.472;23.936;2024-03-23T02:12:43;11.57;;;5.75;;
41829;SDS011;38614;43.472;23.936;2024-03-23T02:15:30;16.42;;;6.75;;
41829;SDS011;38614;43.472;23.936;2024-03-23T02:18:16;17.02;;;7.20;;
41829;SDS011;38614;43.472;23.936;2024-03-23T02:21:03;22.52;;;7.75;;
41829;SDS011;38614;43.472;23.936;2024-03-23T02:23:49;22.75;;;9.93;;
41829;SDS011;38614;43.472;23.936;2024-03-23T02:26:36;29.25;;;10.48;;
41829;SDS011;38614;43.472;23.936;2024-03-23T02:29:24;28.38;;;11.90;;
41829;SDS011;38614;43.472;23.936;2024-03-23T02:32:10;31.55;;;11.43;;
41829;SDS011;38614;43.472;23.936;2024-03-23T02:34:57;24.20;;;9.68;;
41829;SDS011;38614;43.472;23.936;2024-03-23T02:37:45;15.32;;;7.22;;
41829;SDS011;38614;43.472;23.936;2024-03-23T02:40:32;16.23;;;7.78;;
41829;SDS011;38614;43.472;23.936;2024-03-23T02:43:18;14.23;;;7.35;;
41829;SDS011;38614;43.472;23.936;2024-03-23T02:46:05;11.95;;;5.90;;
41829;SDS011;38614;43.472;23.936;2024-03-23T02:48:51;11.35;;;5.57;;
41829;SDS011;38614;43.472;23.936;2024-03-23T02:51:38;24.40;;;6.55;;
41829;SDS011;38614;43.472;23.936;2024-03-23T02:54:25;13.85;;;6.10;;
41829;SDS011;38614;43.472;23.936;2024-03-23T02:57:11;13.75;;;6.60;;
41829;SDS011;38614;43.472;23.936;2024-03-23T02:59:58;11.30;;;5.90;;
41829;SDS011;38614;43.472;23.936;2024-03-23T03:02:44;17.77;;;5.60;;
41829;SDS011;38614;43.472;23.936;2024-03-23T03:05:31;16.02;;;7.05;;
41829;SDS011;38614;43.472;23.936;2024-03-23T03:08:18;14.52;;;6.28;;
41829;SDS011;38614;43.472;23.936;2024-03-23T03:11:04;9.15;;;5.93;;
41829;SDS011;38614;43.472;23.936;2024-03-23T03:13:51;13.98;;;4.88;;
41829;SDS011;38614;43.472;23.936;2024-03-23T03:16:38;10.65;;;5.10;;
41829;SDS011;38614;43.472;23.936;2024-03-23T03:19:24;23.02;;;7.20;;
41829;SDS011;38614;43.472;23.936;2024-03-23T03:22:11;13.57;;;6.03;;
41829;SDS011;38614;43.472;23.936;2024-03-23T03:24:58;23.13;;;9.75;;
41829;SDS011;38614;43.472;23.936;2024-03-23T03:27:46;18.38;;;8.88;;
41829;SDS011;38614;43.472;23.936;2024-03-23T03:30:32;17.05;;;7.55;;
41829;SDS011;38614;43.472;23.936;2024-03-23T03:33:19;20.15;;;6.45;;
41829;SDS011;38614;43.472;23.936;2024-03-23T03:36:05;11.27;;;5.70;;
41829;SDS011;38614;43.472;23.936;2024-03-23T03:38:52;9.65;;;5.90;;
41829;SDS011;38614;43.472;23.936;2024-03-23T03:41:38;17.05;;;7.47;;
41829;SDS011;38614;43.472;23.936;2024-03-23T03:44:27;17.05;;;7.82;;
41829;SDS011;38614;43.472;23.936;2024-03-23T03:47:13;19.23;;;6.97;;
41829;SDS011;38614;43.472;23.936;2024-03-23T03:50:00;18.00;;;8.52;;
41829;SDS011;38614;43.472;23.936;2024-03-23T03:52:47;14.43;;;6.85;;
41829;SDS011;38614;43.472;23.936;2024-03-23T03:55:33;18.30;;;7.63;;
41829;SDS011;38614;43.472;23.936;2024-03-23T03:58:20;20.25;;;7.70;;
41829;SDS011;38614;43.472;23.936;2024-03-23T04:01:06;18.40;;;7.15;;
41829;SDS011;38614;43.472;23.936;2024-03-23T04:03:53;18.73;;;7.22;;
41829;SDS011;38614;43.472;23.936;2024-03-23T04:06:40;17.58;;;7.70;;
41829;SDS011;38614;43.472;23.936;2024-03-23T04:09:26;22.15;;;8.88;;
41829;SDS011;38614;43.472;23.936;2024-03-23T04:12:13;16.23;;;7.85;;
41829;SDS011;38614;43.472;23.936;2024-03-23T04:14:59;20.88;;;9.85;;
41829;SDS011;38614;43.472;23.936;2024-03-23T04:17:46;18.48;;;9.85;;
41829;SDS011;38614;43.472;23.936;2024-03-23T04:20:32;14.77;;;8.23;;
41829;SDS011;38614;43.472;23.936;2024-03-23T04:23:19;13.13;;;7.40;;
41829;SDS011;38614;43.472;23.936;2024-03-23T04:26:07;18.05;;;9.20;;
41829;SDS011;38614;43.472;23.936;2024-03-23T04:28:54;23.83;;;8.77;;
41829;SDS011;38614;43.472;23.936;2024-03-23T04:31:40;18.48;;;9.10;;
41829;SDS011;38614;43.472;23.936;2024-03-23T04:34:27;30.25;;;13.48;;
41829;SDS011;38614;43.472;23.936;2024-03-23T04:37:13;30.98;;;10.90;;
41829;SDS011;38614;43.472;23.936;2024-03-23T04:40:00;24.02;;;9.80;;
41829;SDS011;38614;43.472;23.936;2024-03-23T04:42:50;37.22;;;13.57;;
41829;SDS011;38614;43.472;23.936;2024-03-23T04:45:36;49.83;;;15.73;;
41829;SDS011;38614;43.472;23.936;2024-03-23T04:48:23;29.50;;;12.10;;
41829;SDS011;38614;43.472;23.936;2024-03-23T04:51:10;27.40;;;11.55;;
41829;SDS011;38614;43.472;23.936;2024-03-23T04:54:00;26.05;;;11.18;;
41829;SDS011;38614;43.472;23.936;2024-03-23T04:56:51;36.25;;;11.70;;
41829;SDS011;38614;43.472;23.936;2024-03-23T04:59:37;42.35;;;12.02;;
41829;SDS011;38614;43.472;23.936;2024-03-23T05:02:24;24.67;;;11.68;;
41829;SDS011;38614;43.472;23.936;2024-03-23T05:05:11;21.60;;;10.48;;
41829;SDS011;38614;43.472;23.936;2024-03-23T05:07:58;23.75;;;12.68;;
41829;SDS011;38614;43.472;23.936;2024-03-23T05:10:46;27.55;;;10.85;;
41829;SDS011;38614;43.472;23.936;2024-03-23T05:13:34;24.30;;;12.52;;
41829;SDS011;38614;43.472;23.936;2024-03-23T05:16:21;22.50;;;13.30;;
41829;SDS011;38614;43.472;23.936;2024-03-23T05:19:07;29.08;;;13.48;;
41829;SDS011;38614;43.472;23.936;2024-03-23T05:21:54;26.60;;;13.45;;
41829;SDS011;38614;43.472;23.936;2024-03-23T05:24:41;35.85;;;12.82;;
41829;SDS011;38614;43.472;23.936;2024-03-23T05:27:28;31.25;;;10.32;;
41829;SDS011;38614;43.472;23.936;2024-03-23T05:30:15;20.92;;;9.10;;
41829;SDS011;38614;43.472;23.936;2024-03-23T05:33:01;16.23;;;7.93;;
41829;SDS011;38614;43.472;23.936;2024-03-23T05:35:55;15.95;;;8.63;;
41829;SDS011;38614;43.472;23.936;2024-03-23T05:38:42;22.33;;;7.68;;
41829;SDS011;38614;43.472;23.936;2024-03-23T05:41:29;16.73;;;6.82;;
41829;SDS011;38614;43.472;23.936;2024-03-23T05:44:15;16.45;;;7.03;;
41829;SDS011;38614;43.472;23.936;2024-03-23T05:47:02;15.18;;;5.43;;
41829;SDS011;38614;43.472;23.936;2024-03-23T05:49:48;19.65;;;8.50;;
41829;SDS011;38614;43.472;23.936;2024-03-23T05:52:35;26.15;;;8.90;;
41829;SDS011;38614;43.472;23.936;2024-03-23T05:55:21;17.88;;;6.70;;
41829;SDS011;38614;43.472;23.936;2024-03-23T05:58:08;17.73;;;7.63;;
41829;SDS011;38614;43.472;23.936;2024-03-23T06:00:58;13.05;;;6.88;;
41829;SDS011;38614;43.472;23.936;2024-03-23T06:03:46;9.87;;;5.37;;
41829;SDS011;38614;43.472;23.936;2024-03-23T06:06:32;15.40;;;7.10;;
41829;SDS011;38614;43.472;23.936;2024-03-23T06:09:19;13.20;;;5.38;;
41829;SDS011;38614;43.472;23.936;2024-03-23T06:12:06;7.68;;;4.32;;
41829;SDS011;38614;43.472;23.936;2024-03-23T06:14:52;11.25;;;4.25;;
41829;SDS011;38614;43.472;23.936;2024-03-23T06:17:39;11.80;;;4.70;;
41829;SDS011;38614;43.472;23.936;2024-03-23T06:20:26;8.30;;;4.20;;
41829;SDS011;38614;43.472;23.936;2024-03-23T06:23:13;17.15;;;5.70;;
41829;SDS011;38614;43.472;23.936;2024-03-23T06:26:01;9.52;;;5.13;;
41829;SDS011;38614;43.472;23.936;2024-03-23T06:28:47;13.95;;;4.82;;
41829;SDS011;38614;43.472;23.936;2024-03-23T06:31:34;6.63;;;4.05;;
41829;SDS011;38614;43.472;23.936;2024-03-23T06:34:20;8.63;;;4.85;;
41829;SDS011;38614;43.472;23.936;2024-03-23T06:37:08;13.27;;;5.75;;
41829;SDS011;38614;43.472;23.936;2024-03-23T06:39:58;12.13;;;5.45;;
41829;SDS011;38614;43.472;23.936;2024-03-23T06:42:44;10.98;;;4.43;;
41829;SDS011;38614;43.472;23.936;2024-03-23T06:45:31;9.02;;;4.88;;
41829;SDS011;38614;43.472;23.936;2024-03-23T06:48:17;7.20;;;5.00;;
41829;SDS011;38614;43.472;23.936;2024-03-23T06:51:04;11.80;;;4.57;;
41829;SDS011;38614;43.472;23.936;2024-03-23T06:53:53;9.20;;;5.00;;
41829;SDS011;38614;43.472;23.936;2024-03-23T06:56:39;10.15;;;5.45;;
41829;SDS011;38614;43.472;23.936;2024-03-23T06:59:26;6.55;;;4.45;;
41829;SDS011;38614;43.472;23.936;2024-03-23T07:02:12;9.32;;;5.07;;
41829;SDS011;38614;43.472;23.936;2024-03-23T07:04:59;14.45;;;6.35;;
41829;SDS011;38614;43.472;23.936;2024-03-23T07:07:45;11.38;;;6.00;;
41829;SDS011;38614;43.472;23.936;2024-03-23T07:10:32;20.08;;;6.60;;
41829;SDS011;38614;43.472;23.936;2024-03-23T07:13:19;19.05;;;8.23;;
41829;SDS011;38614;43.472;23.936;2024-03-23T07:16:06;18.05;;;6.57;;
41829;SDS011;38614;43.472;23.936;2024-03-23T07:18:52;19.42;;;7.30;;
41829;SDS011;38614;43.472;23.936;2024-03-23T07:21:39;10.00;;;6.22;;
41829;SDS011;38614;43.472;23.936;2024-03-23T07:24:25;12.60;;;5.88;;
41829;SDS011;38614;43.472;23.936;2024-03-23T07:27:12;12.45;;;7.35;;
41829;SDS011;38614;43.472;23.936;2024-03-23T07:29:58;16.35;;;7.07;;
41829;SDS011;38614;43.472;23.936;2024-03-23T07:32:45;13.88;;;6.78;;
41829;SDS011;38614;43.472;23.936;2024-03-23T07:35:31;12.57;;;6.35;;
41829;SDS011;38614;43.472;23.936;2024-03-23T07:38:18;12.43;;;6.60;;
41829;SDS011;38614;43.472;23.936;2024-03-23T07:41:10;12.57;;;5.25;;
41829;SDS011;38614;43.472;23.936;2024-03-23T07:43:56;11.32;;;4.82;;
41829;SDS011;38614;43.472;23.936;2024-03-23T07:46:43;8.10;;;5.53;;
41829;SDS011;38614;43.472;23.936;2024-03-23T07:49:29;14.45;;;5.43;;
41829;SDS011;38614;43.472;23.936;2024-03-23T07:52:16;10.77;;;6.05;;
41829;SDS011;38614;43.472;23.936;2024-03-23T07:55:04;9.30;;;4.10;;
41829;SDS011;38614;43.472;23.936;2024-03-23T07:57:51;13.38;;;4.80;;
41829;SDS011;38614;43.472;23.936;2024-03-23T08:00:38;7.97;;;4.00;;
41829;SDS011;38614;43.472;23.936;2024-03-23T08:03:24;10.95;;;4.07;;
41829;SDS011;38614;43.472;23.936;2024-03-23T08:06:14;9.45;;;4.07;;
41829;SDS011;38614;43.472;23.936;2024-03-23T08:09:01;8.07;;;4.78;;
41829;SDS011;38614;43.472;23.936;2024-03-23T08:11:48;8.00;;;3.90;;
41829;SDS011;38614;43.472;23.936;2024-03-23T08:14:34;6.50;;;4.30;;
41829;SDS011;38614;43.472;23.936;2024-03-23T08:17:21;9.52;;;4.85;;
41829;SDS011;38614;43.472;23.936;2024-03-23T08:20:07;7.32;;;4.55;;
41829;SDS011;38614;43.472;23.936;2024-03-23T08:22:54;5.10;;;2.58;;
41829;SDS011;38614;43.472;23.936;2024-03-23T08:25:40;5.13;;;2.00;;
41829;SDS011;38614;43.472;23.936;2024-03-23T08:28:27;2.58;;;1.70;;
41829;SDS011;38614;43.472;23.936;2024-03-23T08:31:15;3.10;;;2.03;;
41829;SDS011;38614;43.472;23.936;2024-03-23T08:34:02;2.78;;;1.80;;
41829;SDS011;38614;43.472;23.936;2024-03-23T08:36:48;4.53;;;2.35;;
41829;SDS011;38614;43.472;23.936;2024-03-23T08:39:36;5.10;;;1.63;;
41829;SDS011;38614;43.472;23.936;2024-03-23T08:42:22;7.95;;;2.03;;
41829;SDS011;38614;43.472;23.936;2024-03-23T08:45:09;7.03;;;1.70;;
41829;SDS011;38614;43.472;23.936;2024-03-23T08:47:57;10.13;;;2.15;;
41829;SDS011;38614;43.472;23.936;2024-03-23T08:50:43;2.08;;;1.67;;
41829;SDS011;38614;43.472;23.936;2024-03-23T08:53:30;8.43;;;1.75;;
41829;SDS011;38614;43.472;23.936;2024-03-23T08:56:17;4.07;;;2.17;;
41829;SDS011;38614;43.472;23.936;2024-03-23T08:59:04;4.70;;;2.70;;
41829;SDS011;38614;43.472;23.936;2024-03-23T09:01:50;3.75;;;1.95;;
41829;SDS011;38614;43.472;23.936;2024-03-23T09:04:37;10.45;;;1.95;;
41829;SDS011;38614;43.472;23.936;2024-03-23T09:07:23;7.90;;;2.30;;
41829;SDS011;38614;43.472;23.936;2024-03-23T09:10:10;3.88;;;2.38;;
41829;SDS011;38614;43.472;23.936;2024-03-23T09:12:57;6.22;;;2.38;;
41829;SDS011;38614;43.472;23.936;2024-03-23T09:15:47;7.32;;;2.38;;
41829;SDS011;38614;43.472;23.936;2024-03-23T09:18:35;2.72;;;1.98;;
41829;SDS011;38614;43.472;23.936;2024-03-23T09:21:22;2.90;;;1.88;;
41829;SDS011;38614;43.472;23.936;2024-03-23T09:24:08;5.03;;;2.15;;
41829;SDS011;38614;43.472;23.936;2024-03-23T09:26:55;3.38;;;1.83;;
41829;SDS011;38614;43.472;23.936;2024-03-23T09:29:41;6.05;;;1.58;;
41829;SDS011;38614;43.472;23.936;2024-03-23T09:32:28;3.80;;;1.58;;
41829;SDS011;38614;43.472;23.936;2024-03-23T09:35:14;2.55;;;1.73;;
41829;SDS011;38614;43.472;23.936;2024-03-23T09:38:01;3.65;;;1.20;;
41829;SDS011;38614;43.472;23.936;2024-03-23T09:40:48;2.42;;;1.10;;
41829;SDS011;38614;43.472;23.936;2024-03-23T09:43:36;1.92;;;1.25;;
41829;SDS011;38614;43.472;23.936;2024-03-23T09:46:22;6.65;;;0.60;;
41829;SDS011;38614;43.472;23.936;2024-03-23T09:49:09;1.83;;;0.70;;
41829;SDS011;38614;43.472;23.936;2024-03-23T09:51:56;3.05;;;1.10;;
41829;SDS011;38614;43.472;23.936;2024-03-23T09:54:42;4.70;;;0.77;;
41829;SDS011;38614;43.472;23.936;2024-03-23T09:57:29;2.05;;;0.43;;
41829;SDS011;38614;43.472;23.936;2024-03-23T10:00:16;1.50;;;0.50;;
41829;SDS011;38614;43.472;23.936;2024-03-23T10:03:02;0.75;;;0.47;;
41829;SDS011;38614;43.472;23.936;2024-03-23T10:06:00;1.40;;;0.52;;
41829;SDS011;38614;43.472;23.936;2024-03-23T10:08:46;1.73;;;0.70;;
41829;SDS011;38614;43.472;23.936;2024-03-23T10:11:33;3.42;;;1.58;;
41829;SDS011;38614;43.472;23.936;2024-03-23T10:14:28;3.40;;;0.70;;
41829;SDS011;38614;43.472;23.936;2024-03-23T10:20:23;0.73;;;0.43;;
41829;SDS011;38614;43.472;23.936;2024-03-23T10:23:15;0.70;;;0.70;;
41829;SDS011;38614;43.472;23.936;2024-03-23T10:26:35;3.13;;;0.70;;
41829;SDS011;38614;43.472;23.936;2024-03-23T10:29:16;1.90;;;1.20;;
41829;SDS011;38614;43.472;23.936;2024-03-23T10:32:07;1.25;;;0.82;;
41829;SDS011;38614;43.472;23.936;2024-03-23T10:34:54;1.73;;;0.30;;
41829;SDS011;38614;43.472;23.936;2024-03-23T10:37:41;1.15;;;0.70;;
41829;SDS011;38614;43.472;23.936;2024-03-23T10:40:30;2.20;;;1.02;;
41829;SDS011;38614;43.472;23.936;2024-03-23T10:43:17;6.05;;;0.93;;
41829;SDS011;38614;43.472;23.936;2024-03-23T10:46:05;1.83;;;0.80;;
41829;SDS011;38614;43.472;23.936;2024-03-23T10:48:52;1.67;;;0.95;;
41829;SDS011;38614;43.472;23.936;2024-03-23T10:51:38;1.98;;;0.75;;
41829;SDS011;38614;43.472;23.936;2024-03-23T10:54:25;3.83;;;1.13;;
41829;SDS011;38614;43.472;23.936;2024-03-23T10:57:16;2.80;;;1.27;;
41829;SDS011;38614;43.472;23.936;2024-03-23T11:00:04;1.23;;;0.95;;
41829;SDS011;38614;43.472;23.936;2024-03-23T11:02:51;1.67;;;0.70;;
41829;SDS011;38614;43.472;23.936;2024-03-23T11:05:48;1.95;;;0.57;;
41829;SDS011;38614;43.472;23.936;2024-03-23T11:08:38;4.25;;;0.90;;
41829;SDS011;38614;43.472;23.936;2024-03-23T11:11:25;2.22;;;0.65;;
41829;SDS011;38614;43.472;23.936;2024-03-23T11:14:21;1.52;;;0.75;;
41829;SDS011;38614;43.472;23.936;2024-03-23T11:17:11;1.48;;;1.00;;
41829;SDS011;38614;43.472;23.936;2024-03-23T11:20:03;7.28;;;0.82;;
41829;SDS011;38614;43.472;23.936;2024-03-23T11:22:56;3.90;;;1.13;;
41829;SDS011;38614;43.472;23.936;2024-03-23T11:25:42;6.93;;;1.17;;
41829;SDS011;38614;43.472;23.936;2024-03-23T11:28:30;1.88;;;1.05;;
41829;SDS011;38614;43.472;23.936;2024-03-23T11:31:16;7.30;;;0.88;;
41829;SDS011;38614;43.472;23.936;2024-03-23T11:34:06;1.67;;;1.25;;
41829;SDS011;38614;43.472;23.936;2024-03-23T11:37:04;6.32;;;2.60;;
41829;SDS011;38614;43.472;23.936;2024-03-23T11:39:53;1.60;;;0.95;;
41829;SDS011;38614;43.472;23.936;2024-03-23T11:42:39;2.90;;;1.05;;
41829;SDS011;38614;43.472;23.936;2024-03-23T11:45:26;4.10;;;1.25;;
41829;SDS011;38614;43.472;23.936;2024-03-23T11:48:18;1.05;;;0.52;;
41829;SDS011;38614;43.472;23.936;2024-03-23T11:51:05;2.45;;;1.02;;
41829;SDS011;38614;43.472;23.936;2024-03-23T11:53:52;4.10;;;0.73;;
41829;SDS011;38614;43.472;23.936;2024-03-23T11:56:39;1.95;;;0.90;;
41829;SDS011;38614;43.472;23.936;2024-03-23T12:02:19;1.42;;;0.65;;
41829;SDS011;38614;43.472;23.936;2024-03-23T12:05:15;2.03;;;0.88;;
41829;SDS011;38614;43.472;23.936;2024-03-23T12:08:18;2.10;;;1.00;;
41829;SDS011;38614;43.472;23.936;2024-03-23T12:11:05;2.45;;;0.77;;
41829;SDS011;38614;43.472;23.936;2024-03-23T12:13:53;0.90;;;0.77;;
41829;SDS011;38614;43.472;23.936;2024-03-23T12:16:46;2.63;;;0.68;;
41829;SDS011;38614;43.472;23.936;2024-03-23T12:19:32;1.77;;;0.70;;
41829;SDS011;38614;43.472;23.936;2024-03-23T12:22:22;1.35;;;0.65;;
41829;SDS011;38614;43.472;23.936;2024-03-23T12:25:08;1.25;;;0.80;;
41829;SDS011;38614;43.472;23.936;2024-03-23T12:27:57;1.67;;;0.63;;
41829;SDS011;38614;43.472;23.936;2024-03-23T12:30:43;2.38;;;0.70;;
41829;SDS011;38614;43.472;23.936;2024-03-23T12:33:30;3.40;;;0.88;;
41829;SDS011;38614;43.472;23.936;2024-03-23T12:36:17;2.95;;;0.70;;
41829;SDS011;38614;43.472;23.936;2024-03-23T12:39:03;3.22;;;0.52;;
41829;SDS011;38614;43.472;23.936;2024-03-23T12:41:50;2.38;;;0.82;;
41829;SDS011;38614;43.472;23.936;2024-03-23T12:44:38;5.88;;;1.10;;
41829;SDS011;38614;43.472;23.936;2024-03-23T12:47:24;0.80;;;0.35;;
41829;SDS011;38614;43.472;23.936;2024-03-23T12:50:10;0.98;;;0.50;;
41829;SDS011;38614;43.472;23.936;2024-03-23T12:52:57;2.58;;;0.70;;
41829;SDS011;38614;43.472;23.936;2024-03-23T12:55:44;1.73;;;0.52;;
41829;SDS011;38614;43.472;23.936;2024-03-23T12:58:30;1.45;;;0.57;;
41829;SDS011;38614;43.472;23.936;2024-03-23T13:01:17;1.45;;;0.70;;
41829;SDS011;38614;43.472;23.936;2024-03-23T13:04:03;2.60;;;0.82;;
41829;SDS011;38614;43.472;23.936;2024-03-23T13:06:50;0.82;;;0.52;;
41829;SDS011;38614;43.472;23.936;2024-03-23T13:09:37;0.90;;;0.50;;
41829;SDS011;38614;43.472;23.936;2024-03-23T13:12:23;7.07;;;0.60;;
41829;SDS011;38614;43.472;23.936;2024-03-23T13:15:10;4.03;;;0.70;;
41829;SDS011;38614;43.472;23.936;2024-03-23T13:17:57;0.77;;;0.47;;
41829;SDS011;38614;43.472;23.936;2024-03-23T13:20:44;0.50;;;0.40;;
41829;SDS011;38614;43.472;23.936;2024-03-23T13:23:30;3.08;;;0.70;;
41829;SDS011;38614;43.472;23.936;2024-03-23T13:26:18;2.65;;;0.57;;
41829;SDS011;38614;43.472;23.936;2024-03-23T13:29:05;2.70;;;0.52;;
41829;SDS011;38614;43.472;23.936;2024-03-23T13:31:52;0.70;;;0.22;;
41829;SDS011;38614;43.472;23.936;2024-03-23T13:34:39;0.80;;;0.47;;
41829;SDS011;38614;43.472;23.936;2024-03-23T13:37:26;2.42;;;1.02;;
41829;SDS011;38614;43.472;23.936;2024-03-23T13:40:13;1.17;;;0.35;;
41829;SDS011;38614;43.472;23.936;2024-03-23T13:42:59;1.52;;;0.57;;
41829;SDS011;38614;43.472;23.936;2024-03-23T13:45:51;0.98;;;0.52;;
41829;SDS011;38614;43.472;23.936;2024-03-23T13:48:39;2.95;;;0.32;;
41829;SDS011;38614;43.472;23.936;2024-03-23T13:51:27;1.38;;;0.77;;
41829;SDS011;38614;43.472;23.936;2024-03-23T13:54:13;1.38;;;0.45;;
41829;SDS011;38614;43.472;23.936;2024-03-23T13:57:00;1.13;;;0.70;;
41829;SDS011;38614;43.472;23.936;2024-03-23T13:59:48;1.27;;;0.73;;
41829;SDS011;38614;43.472;23.936;2024-03-23T14:02:35;0.95;;;0.52;;
41829;SDS011;38614;43.472;23.936;2024-03-23T14:05:22;1.75;;;1.35;;
41829;SDS011;38614;43.472;23.936;2024-03-23T14:08:09;1.38;;;0.68;;
41829;SDS011;38614;43.472;23.936;2024-03-23T14:10:55;1.73;;;1.00;;
41829;SDS011;38614;43.472;23.936;2024-03-23T14:13:43;4.75;;;0.65;;
41829;SDS011;38614;43.472;23.936;2024-03-23T14:16:30;1.92;;;0.63;;
41829;SDS011;38614;43.472;23.936;2024-03-23T14:19:17;1.83;;;0.60;;
41829;SDS011;38614;43.472;23.936;2024-03-23T14:22:05;3.25;;;0.80;;
41829;SDS011;38614;43.472;23.936;2024-03-23T14:24:52;2.20;;;0.50;;
41829;SDS011;38614;43.472;23.936;2024-03-23T14:27:38;0.82;;;0.60;;
41829;SDS011;38614;43.472;23.936;2024-03-23T14:30:25;0.50;;;0.38;;
41829;SDS011;38614;43.472;23.936;2024-03-23T14:33:11;2.50;;;0.63;;
41829;SDS011;38614;43.472;23.936;2024-03-23T14:35:58;1.98;;;0.45;;
41829;SDS011;38614;43.472;23.936;2024-03-23T14:38:48;0.77;;;0.40;;
41829;SDS011;38614;43.472;23.936;2024-03-23T14:41:35;0.85;;;0.50;;
41829;SDS011;38614;43.472;23.936;2024-03-23T14:44:21;0.60;;;0.20;;
41829;SDS011;38614;43.472;23.936;2024-03-23T14:47:09;1.45;;;0.60;;
41829;SDS011;38614;43.472;23.936;2024-03-23T14:49:55;6.43;;;0.45;;
41829;SDS011;38614;43.472;23.936;2024-03-23T14:52:45;2.20;;;0.68;;
41829;SDS011;38614;43.472;23.936;2024-03-23T14:55:31;2.15;;;0.40;;
41829;SDS011;38614;43.472;23.936;2024-03-23T14:58:18;2.15;;;1.73;;
41829;SDS011;38614;43.472;23.936;2024-03-23T15:01:05;0.50;;;0.45;;
41829;SDS011;38614;43.472;23.936;2024-03-23T15:03:58;6.40;;;0.60;;
41829;SDS011;38614;43.472;23.936;2024-03-23T15:06:44;1.65;;;0.40;;
41829;SDS011;38614;43.472;23.936;2024-03-23T15:09:35;0.95;;;0.43;;
41829;SDS011;38614;43.472;23.936;2024-03-23T15:12:22;3.42;;;1.38;;
41829;SDS011;38614;43.472;23.936;2024-03-23T15:15:10;4.53;;;0.82;;
41829;SDS011;38614;43.472;23.936;2024-03-23T15:17:58;2.67;;;0.77;;
41829;SDS011;38614;43.472;23.936;2024-03-23T15:20:54;1.67;;;0.63;;
41829;SDS011;38614;43.472;23.936;2024-03-23T15:23:41;1.35;;;0.52;;
41829;SDS011;38614;43.472;23.936;2024-03-23T15:26:29;1.73;;;0.35;;
41829;SDS011;38614;43.472;23.936;2024-03-23T15:29:16;1.75;;;0.60;;
41829;SDS011;38614;43.472;23.936;2024-03-23T15:32:05;3.13;;;0.63;;
41829;SDS011;38614;43.472;23.936;2024-03-23T15:34:51;2.22;;;1.00;;
41829;SDS011;38614;43.472;23.936;2024-03-23T15:37:38;2.47;;;0.57;;
41829;SDS011;38614;43.472;23.936;2024-03-23T15:40:26;1.77;;;0.80;;
41829;SDS011;38614;43.472;23.936;2024-03-23T15:43:13;1.25;;;0.50;;
41829;SDS011;38614;43.472;23.936;2024-03-23T15:46:00;0.80;;;0.57;;
41829;SDS011;38614;43.472;23.936;2024-03-23T15:48:47;2.63;;;0.93;;
41829;SDS011;38614;43.472;23.936;2024-03-23T15:51:35;2.70;;;0.75;;
41829;SDS011;38614;43.472;23.936;2024-03-23T15:54:23;5.60;;;0.95;;
41829;SDS011;38614;43.472;23.936;2024-03-23T15:57:09;1.85;;;0.77;;
41829;SDS011;38614;43.472;23.936;2024-03-23T15:59:56;3.35;;;1.20;;
41829;SDS011;38614;43.472;23.936;2024-03-23T16:02:42;4.72;;;0.85;;
41829;SDS011;38614;43.472;23.936;2024-03-23T16:05:29;2.78;;;1.35;;
41829;SDS011;38614;43.472;23.936;2024-03-23T16:08:15;7.57;;;1.23;;
41829;SDS011;38614;43.472;23.936;2024-03-23T16:11:03;2.33;;;1.80;;
41829;SDS011;38614;43.472;23.936;2024-03-23T16:13:50;4.35;;;2.13;;
41829;SDS011;38614;43.472;23.936;2024-03-23T16:16:36;7.78;;;1.10;;
41829;SDS011;38614;43.472;23.936;2024-03-23T16:19:23;7.15;;;1.48;;
41829;SDS011;38614;43.472;23.936;2024-03-23T16:22:09;3.63;;;1.35;;
41829;SDS011;38614;43.472;23.936;2024-03-23T16:24:56;4.85;;;1.48;;
41829;SDS011;38614;43.472;23.936;2024-03-23T16:27:42;3.78;;;1.95;;
41829;SDS011;38614;43.472;23.936;2024-03-23T16:30:29;4.85;;;2.00;;
41829;SDS011;38614;43.472;23.936;2024-03-23T16:33:16;7.38;;;2.65;;
41829;SDS011;38614;43.472;23.936;2024-03-23T16:36:03;8.48;;;2.10;;
41829;SDS011;38614;43.472;23.936;2024-03-23T16:38:55;5.93;;;2.28;;
41829;SDS011;38614;43.472;23.936;2024-03-23T16:41:42;12.05;;;2.50;;
41829;SDS011;38614;43.472;23.936;2024-03-23T16:44:28;15.43;;;4.32;;
41829;SDS011;38614;43.472;23.936;2024-03-23T16:47:15;5.63;;;2.72;;
41829;SDS011;38614;43.472;23.936;2024-03-23T16:50:01;2.35;;;1.45;;
41829;SDS011;38614;43.472;23.936;2024-03-23T16:52:48;4.60;;;2.33;;
41829;SDS011;38614;43.472;23.936;2024-03-23T16:55:35;12.82;;;3.35;;
41829;SDS011;38614;43.472;23.936;2024-03-23T16:58:21;6.95;;;2.35;;
41829;SDS011;38614;43.472;23.936;2024-03-23T17:03:56;22.00;;;3.72;;
41829;SDS011;38614;43.472;23.936;2024-03-23T17:06:42;7.43;;;4.07;;
41829;SDS011;38614;43.472;23.936;2024-03-23T17:09:29;13.50;;;4.72;;
41829;SDS011;38614;43.472;23.936;2024-03-23T17:12:17;18.35;;;4.70;;
41829;SDS011;38614;43.472;23.936;2024-03-23T17:15:04;7.40;;;4.40;;
41829;SDS011;38614;43.472;23.936;2024-03-23T17:17:54;12.90;;;5.28;;
41829;SDS011;38614;43.472;23.936;2024-03-23T17:20:41;16.25;;;5.18;;
41829;SDS011;38614;43.472;23.936;2024-03-23T17:23:28;13.73;;;5.60;;
41829;SDS011;38614;43.472;23.936;2024-03-23T17:26:15;12.23;;;5.93;;
41829;SDS011;38614;43.472;23.936;2024-03-23T17:29:02;10.88;;;5.93;;